createdAt,value
2022-10-12T00:02:23.189Z,100.00
2022-10-12T00:04:49.908Z,100.00
2022-10-12T00:07:16.675Z,100.00
2022-10-12T00:09:44.508Z,100.00
2022-10-12T00:12:11.246Z,100.00
2022-10-12T00:14:38.310Z,100.00
2022-10-12T00:17:05.084Z,100.00
2022-10-12T00:19:31.821Z,100.00
2022-10-12T00:21:58.582Z,100.00
2022-10-12T00:24:25.760Z,100.00
2022-10-12T00:26:52.590Z,100.00
2022-10-12T00:29:19.624Z,100.00
2022-10-12T00:31:46.464Z,100.00
2022-10-12T00:34:13.261Z,100.00
2022-10-12T00:36:39.973Z,100.00
2022-10-12T00:39:09.111Z,100.00
2022-10-12T00:44:45.596Z,100.00
2022-10-12T00:47:38.338Z,100.00
2022-10-12T00:50:18.689Z,100.00
2022-10-12T00:52:51.993Z,100.00
2022-10-12T00:55:23.014Z,100.00
2022-10-12T00:57:51.712Z,100.00
2022-10-12T01:00:19.717Z,100.00
2022-10-12T01:02:49.024Z,100.00
2022-10-12T01:05:15.946Z,100.00
2022-10-12T01:07:43.396Z,100.00
2022-10-12T01:10:10.986Z,100.00
2022-10-12T01:12:41.082Z,100.00
2022-10-12T01:15:08.495Z,100.00
2022-10-12T01:17:40.919Z,100.00
2022-10-12T01:20:32.357Z,100.00
2022-10-12T01:23:17.438Z,100.00
2022-10-12T01:26:15.604Z,100.00
2022-10-12T01:28:45.063Z,100.00
2022-10-12T01:31:33.736Z,100.00
2022-10-12T01:34:07.512Z,100.00
2022-10-12T01:36:43.158Z,100.00
2022-10-12T01:39:09.852Z,100.00
2022-10-12T01:41:42.015Z,100.00
2022-10-12T01:44:08.736Z,100.00
2022-10-12T01:46:40.133Z,100.00
2022-10-12T01:49:07.061Z,100.00
2022-10-12T01:51:42.689Z,100.00
2022-10-12T01:54:50.804Z,100.00
2022-10-12T01:57:45.670Z,100.00
2022-10-12T02:00:17.684Z,100.00
2022-10-12T02:02:59.412Z,100.00
2022-10-12T02:05:50.426Z,100.00
2022-10-12T02:08:28.106Z,100.00
2022-10-12T02:11:03.614Z,100.00
2022-10-12T02:13:34.926Z,100.00
2022-10-12T02:16:04.789Z,100.00
2022-10-12T02:18:34.023Z,100.00
2022-10-12T02:21:01.172Z,100.00
2022-10-12T02:23:28.923Z,100.00
2022-10-12T02:25:57.840Z,100.00
2022-10-12T02:28:27.755Z,100.00
2022-10-12T02:30:59.794Z,100.00
2022-10-12T02:33:35.609Z,100.00
2022-10-12T02:36:09.298Z,100.00
2022-10-12T02:38:43.560Z,100.00
2022-10-12T02:41:20.091Z,100.00
2022-10-12T02:44:00.341Z,100.00
2022-10-12T02:46:29.398Z,100.00
2022-10-12T02:48:59.315Z,100.00
2022-10-12T02:51:29.448Z,100.00
2022-10-12T02:53:56.788Z,100.00
2022-10-12T02:56:24.268Z,100.00
2022-10-12T02:58:51.184Z,100.00
2022-10-12T03:01:18.094Z,100.00
2022-10-12T03:03:46.096Z,100.00
2022-10-12T03:06:13.465Z,100.00
2022-10-12T03:08:40.458Z,100.00
2022-10-12T03:11:09.560Z,100.00
2022-10-12T03:13:36.417Z,100.00
2022-10-12T03:16:08.710Z,100.00
2022-10-12T03:18:36.210Z,100.00
2022-10-12T03:21:03.374Z,100.00
2022-10-12T03:23:30.449Z,100.00
2022-10-12T03:25:57.163Z,100.00
2022-10-12T03:28:24.123Z,100.00
2022-10-12T03:30:50.868Z,100.00
2022-10-12T03:33:17.524Z,100.00
2022-10-12T03:35:45.545Z,100.00
2022-10-12T03:38:13.575Z,100.00
2022-10-12T03:40:40.597Z,100.00
2022-10-12T03:43:07.868Z,100.00
2022-10-12T03:45:34.955Z,100.00
2022-10-12T03:48:04.910Z,100.00
2022-10-12T03:50:34.995Z,100.00
2022-10-12T03:53:03.492Z,100.00
2022-10-12T03:55:30.193Z,100.00
2022-10-12T03:57:56.967Z,100.00
2022-10-12T04:00:24.594Z,100.00
2022-10-12T04:02:51.420Z,100.00
2022-10-12T04:05:18.378Z,100.00
2022-10-12T04:07:45.129Z,100.00
2022-10-12T04:10:12.068Z,100.00
2022-10-12T04:12:38.869Z,100.00
2022-10-12T04:15:06.290Z,100.00
2022-10-12T04:17:33.021Z,100.00
2022-10-12T04:19:59.753Z,100.00
2022-10-12T04:22:26.523Z,100.00
2022-10-12T04:24:53.301Z,100.00
2022-10-12T04:27:20.130Z,100.00
2022-10-12T04:29:46.926Z,100.00
2022-10-12T04:32:13.629Z,100.00
2022-10-12T04:34:40.367Z,100.00
2022-10-12T04:37:07.124Z,100.00
2022-10-12T04:39:34.904Z,100.00
2022-10-12T04:42:02.268Z,100.00
2022-10-12T04:44:32.154Z,100.00
2022-10-12T04:47:03.075Z,100.00
2022-10-12T04:49:29.952Z,100.00
2022-10-12T04:51:56.715Z,100.00
2022-10-12T04:54:23.394Z,100.00
2022-10-12T04:56:50.208Z,100.00
2022-10-12T04:59:16.914Z,100.00
2022-10-12T05:01:43.741Z,100.00
2022-10-12T05:04:10.618Z,100.00
2022-10-12T05:06:37.426Z,100.00
2022-10-12T05:09:04.344Z,100.00
2022-10-12T05:11:31.165Z,100.00
2022-10-12T05:13:58.693Z,100.00
2022-10-12T05:16:25.536Z,100.00
2022-10-12T05:18:58.000Z,100.00
2022-10-12T05:21:24.917Z,100.00
2022-10-12T05:23:52.528Z,100.00
2022-10-12T05:26:19.752Z,100.00
2022-10-12T05:28:46.613Z,100.00
2022-10-12T05:31:18.330Z,100.00
2022-10-12T05:33:45.118Z,100.00
2022-10-12T05:36:11.909Z,100.00
2022-10-12T05:38:38.704Z,100.00
2022-10-12T05:41:07.870Z,100.00
2022-10-12T05:43:34.773Z,100.00
2022-10-12T05:46:01.551Z,100.00
2022-10-12T05:48:28.294Z,100.00
2022-10-12T05:50:55.554Z,100.00
2022-10-12T05:53:25.833Z,100.00
2022-10-12T05:56:00.729Z,100.00
2022-10-12T05:58:29.074Z,100.00
2022-10-12T06:01:03.819Z,100.00
2022-10-12T06:03:34.701Z,100.00
2022-10-12T06:06:01.980Z,100.00
2022-10-12T06:08:30.662Z,100.00
2022-10-12T06:10:57.615Z,100.00
2022-10-12T06:13:24.430Z,100.00
2022-10-12T06:15:51.245Z,100.00
2022-10-12T06:18:18.392Z,100.00
2022-10-12T06:21:08.747Z,100.00
2022-10-12T06:23:40.596Z,100.00
2022-10-12T06:26:07.575Z,100.00
2022-10-12T06:28:34.332Z,100.00
2022-10-12T06:31:01.353Z,100.00
2022-10-12T06:33:28.503Z,98.45
2022-10-12T06:35:55.876Z,98.07
2022-10-12T06:38:23.010Z,98.95
2022-10-12T06:40:50.120Z,96.89
2022-10-12T06:43:16.872Z,95.83
2022-10-12T06:45:43.544Z,95.93
2022-10-12T06:48:12.830Z,96.00
2022-10-12T06:50:41.782Z,94.45
2022-10-12T06:53:08.455Z,95.87
2022-10-12T06:55:35.227Z,95.07
2022-10-12T06:58:01.877Z,93.76
2022-10-12T07:00:28.615Z,94.48
2022-10-12T07:02:55.308Z,93.15
2022-10-12T07:05:23.793Z,92.38
2022-10-12T07:07:50.570Z,92.81
2022-10-12T07:10:17.430Z,90.63
2022-10-12T07:12:44.292Z,92.41
2022-10-12T07:15:13.555Z,91.98
2022-10-12T07:17:40.765Z,90.85
2022-10-12T07:20:08.306Z,90.76
2022-10-12T07:22:35.880Z,92.17
2022-10-12T07:25:02.811Z,92.05
2022-10-12T07:27:29.553Z,90.63
2022-10-12T07:29:56.417Z,90.98
2022-10-12T07:32:23.298Z,92.20
2022-10-12T07:34:50.004Z,91.47
2022-10-12T07:37:16.794Z,90.36
2022-10-12T07:39:43.543Z,91.10
2022-10-12T07:42:12.610Z,91.03
2022-10-12T07:44:42.186Z,92.49
2022-10-12T07:47:08.894Z,89.45
2022-10-12T07:49:35.736Z,88.99
2022-10-12T07:52:02.449Z,88.00
2022-10-12T07:54:30.228Z,88.91
2022-10-12T07:56:57.184Z,88.95
2022-10-12T07:59:24.288Z,86.59
2022-10-12T08:01:51.097Z,84.18
2022-10-12T08:04:18.062Z,82.24
2022-10-12T08:06:44.823Z,81.13
2022-10-12T08:09:11.673Z,81.26
2022-10-12T08:11:40.194Z,78.91
2022-10-12T08:14:12.298Z,78.72
2022-10-12T08:16:38.992Z,78.16
2022-10-12T08:19:05.799Z,79.75
2022-10-12T08:21:32.507Z,72.43
2022-10-12T08:23:59.177Z,71.80
2022-10-12T08:26:25.894Z,74.97
2022-10-12T08:28:52.658Z,73.68
2022-10-12T08:31:19.559Z,72.86
2022-10-12T08:33:46.475Z,75.43
2022-10-12T08:36:13.836Z,73.56
2022-10-12T08:38:40.562Z,75.47
2022-10-12T08:41:12.065Z,77.62
2022-10-12T08:44:00.064Z,77.45
2022-10-12T08:46:28.547Z,75.01
2022-10-12T08:49:07.707Z,73.48
2022-10-12T08:51:45.634Z,72.60
2022-10-12T08:54:14.993Z,73.54
2022-10-12T08:56:41.937Z,71.28
2022-10-12T08:59:18.279Z,69.65
2022-10-12T09:02:26.561Z,70.31
2022-10-12T09:05:07.394Z,67.04
2022-10-12T09:07:51.124Z,67.78
2022-10-12T09:10:32.911Z,62.79
2022-10-12T09:13:41.135Z,65.30
2022-10-12T09:16:27.916Z,67.39
2022-10-12T09:19:03.382Z,68.72
2022-10-12T09:21:32.505Z,67.40
2022-10-12T09:23:59.618Z,66.70
2022-10-12T09:26:33.280Z,66.36
2022-10-12T09:29:00.167Z,65.49
2022-10-12T09:31:48.531Z,66.54
2022-10-12T09:34:18.991Z,63.53
2022-10-12T09:36:46.595Z,65.69
2022-10-12T09:39:24.534Z,64.43
2022-10-12T09:41:55.074Z,64.73
2022-10-12T09:44:27.189Z,65.93
2022-10-12T09:47:00.391Z,65.13
2022-10-12T09:49:44.174Z,64.83
2022-10-12T09:52:12.736Z,65.58
2022-10-12T09:54:48.230Z,65.75
2022-10-12T09:57:51.214Z,67.86
2022-10-12T10:00:34.045Z,65.51
2022-10-12T10:03:02.136Z,66.07
2022-10-12T10:05:30.474Z,65.98
2022-10-12T10:08:14.766Z,66.84
2022-10-12T10:10:53.237Z,68.06
2022-10-12T10:13:22.127Z,67.46
2022-10-12T10:15:51.904Z,68.08
2022-10-12T10:18:33.694Z,66.12
2022-10-12T10:21:03.203Z,68.36
2022-10-12T10:23:33.635Z,68.80
2022-10-12T10:28:47.838Z,68.82
2022-10-12T10:31:16.037Z,67.17
2022-10-12T10:33:43.673Z,67.07
2022-10-12T10:36:23.624Z,69.15
2022-10-12T10:39:09.397Z,69.01
2022-10-12T10:41:43.306Z,69.07
2022-10-12T10:44:28.251Z,71.71
2022-10-12T10:46:59.209Z,70.59
2022-10-12T10:49:49.784Z,67.06
2022-10-12T10:52:24.329Z,69.94
2022-10-12T10:55:18.286Z,67.37
2022-10-12T10:58:06.551Z,67.23
2022-10-12T11:00:40.696Z,66.82
2022-10-12T11:03:25.170Z,65.34
2022-10-12T11:05:58.217Z,64.67
2022-10-12T11:08:30.678Z,64.60
2022-10-12T11:11:07.551Z,69.10
2022-10-12T11:13:41.491Z,64.07
2022-10-12T11:16:47.121Z,64.44
2022-10-12T11:19:36.843Z,62.73
2022-10-12T11:22:19.194Z,63.05
2022-10-12T11:24:49.875Z,63.71
2022-10-12T11:27:26.035Z,63.50
2022-10-12T11:30:08.909Z,65.72
2022-10-12T11:32:41.490Z,65.41
2022-10-12T11:35:15.695Z,69.29
2022-10-12T11:37:47.214Z,64.98
2022-10-12T11:43:30.390Z,63.67
2022-10-12T11:46:03.247Z,65.08
2022-10-12T11:48:42.649Z,64.56
2022-10-12T11:51:11.329Z,64.58
2022-10-12T11:53:40.893Z,62.79
2022-10-12T11:56:14.423Z,62.75
2022-10-12T11:59:01.435Z,62.38
2022-10-12T12:01:40.565Z,63.20
2022-10-12T12:04:47.532Z,62.26
2022-10-12T12:07:23.454Z,63.69
2022-10-12T12:09:51.739Z,62.91
2022-10-12T12:12:28.876Z,64.50
2022-10-12T12:14:55.557Z,61.89
2022-10-12T12:17:22.285Z,64.83
2022-10-12T12:19:51.341Z,63.14
2022-10-12T12:22:23.735Z,61.76
2022-10-12T12:25:14.274Z,63.75
2022-10-12T12:27:48.476Z,63.13
2022-10-12T12:30:15.158Z,60.61
2022-10-12T12:33:04.651Z,58.96
2022-10-12T12:35:39.157Z,59.33
2022-10-12T12:38:29.713Z,58.23
2022-10-12T12:40:59.057Z,57.98
2022-10-12T12:43:28.811Z,62.43
2022-10-12T12:45:55.679Z,58.18
2022-10-12T12:48:44.108Z,57.68
2022-10-12T12:51:31.479Z,57.08
2022-10-12T12:54:00.595Z,57.69
2022-10-12T12:56:45.712Z,59.67
2022-10-12T12:59:20.203Z,58.62
2022-10-12T13:02:37.056Z,58.59
2022-10-12T13:05:21.141Z,57.68
2022-10-12T13:08:01.668Z,59.42
2022-10-12T13:10:55.948Z,58.42
2022-10-12T13:13:38.952Z,57.90
2022-10-12T13:17:09.575Z,58.13
2022-10-12T13:19:18.639Z,57.47
2022-10-12T13:21:51.363Z,59.16
2022-10-12T13:24:30.807Z,58.96
2022-10-12T13:27:35.374Z,60.12
2022-10-12T13:30:48.648Z,60.26
2022-10-12T13:33:32.729Z,60.28
2022-10-12T13:36:07.600Z,59.80
2022-10-12T13:38:38.607Z,62.75
2022-10-12T13:41:11.606Z,58.98
2022-10-12T13:43:44.244Z,59.07
2022-10-12T13:46:31.554Z,58.46
2022-10-12T13:49:00.013Z,58.24
2022-10-12T13:51:29.406Z,56.68
2022-10-12T13:53:57.102Z,57.96
2022-10-12T13:56:26.708Z,58.42
2022-10-12T13:58:58.288Z,59.21
2022-10-12T14:01:25.650Z,58.90
2022-10-12T14:03:52.564Z,57.27
2022-10-12T14:06:31.930Z,59.34
2022-10-12T14:09:08.543Z,59.67
2022-10-12T14:11:36.428Z,60.45
2022-10-12T14:14:04.057Z,60.71
2022-10-12T14:16:31.026Z,61.87
2022-10-12T14:19:19.095Z,60.89
2022-10-12T14:21:47.748Z,60.72
2022-10-12T14:24:19.477Z,61.00
2022-10-12T14:26:55.854Z,62.97
2022-10-12T14:29:34.725Z,61.16
2022-10-12T14:32:29.783Z,61.54
2022-10-12T14:35:22.561Z,60.48
2022-10-12T14:37:50.949Z,60.43
2022-10-12T14:40:20.935Z,59.21
2022-10-12T14:43:05.346Z,61.40
2022-10-12T14:45:33.429Z,59.57
2022-10-12T14:48:01.603Z,60.08
2022-10-12T14:50:30.545Z,60.15
2022-10-12T14:53:09.310Z,60.87
2022-10-12T14:55:36.149Z,60.31
2022-10-12T14:58:08.149Z,59.57
2022-10-12T15:00:36.791Z,59.86
2022-10-12T15:03:05.028Z,60.38
2022-10-12T15:05:33.085Z,58.58
2022-10-12T15:08:00.731Z,59.17
2022-10-12T15:10:28.225Z,60.29
2022-10-12T15:12:55.174Z,60.06
2022-10-12T15:15:31.059Z,58.46
2022-10-12T15:17:58.730Z,59.60
2022-10-12T15:20:26.972Z,61.53
2022-10-12T15:22:53.803Z,68.10
2022-10-12T15:25:37.920Z,68.52
2022-10-12T15:28:05.275Z,71.94
2022-10-12T15:30:33.215Z,81.52
2022-10-12T15:32:59.958Z,70.89
2022-10-12T15:35:28.854Z,78.91
2022-10-12T15:37:58.554Z,85.97
2022-10-12T15:40:28.975Z,82.04
2022-10-12T15:42:55.885Z,86.44
2022-10-12T15:45:26.888Z,89.56
2022-10-12T15:47:54.448Z,91.02
2022-10-12T15:50:26.718Z,94.46
2022-10-12T15:52:54.435Z,97.32
2022-10-12T15:55:31.287Z,98.71
2022-10-12T15:57:59.214Z,97.91
2022-10-12T16:00:28.955Z,97.99
2022-10-12T16:02:56.999Z,100.00
2022-10-12T16:05:33.772Z,100.00
2022-10-12T16:08:01.954Z,100.00
2022-10-12T16:10:33.766Z,100.00
2022-10-12T16:13:01.006Z,100.00
2022-10-12T16:15:31.598Z,100.00
2022-10-12T16:18:00.376Z,100.00
2022-10-12T16:20:29.157Z,100.00
2022-10-12T16:22:55.997Z,100.00
2022-10-12T16:25:24.225Z,100.00
2022-10-12T16:27:52.592Z,100.00
2022-10-12T16:30:20.970Z,100.00
2022-10-12T16:32:47.890Z,100.00
2022-10-12T16:35:14.977Z,100.00
2022-10-12T16:37:42.234Z,100.00
2022-10-12T16:40:11.082Z,100.00
2022-10-12T16:42:38.213Z,100.00
2022-10-12T16:45:05.361Z,100.00
2022-10-12T16:47:32.105Z,100.00
2022-10-12T16:49:58.860Z,100.00
2022-10-12T16:52:26.365Z,100.00
2022-10-12T16:54:54.760Z,100.00
2022-10-12T16:57:22.314Z,100.00
2022-10-12T16:59:49.703Z,100.00
2022-10-12T17:02:19.223Z,100.00
2022-10-12T17:04:46.806Z,100.00
2022-10-12T17:07:13.880Z,100.00
2022-10-12T17:09:40.617Z,100.00
2022-10-12T17:12:07.751Z,100.00
2022-10-12T17:14:34.598Z,100.00
2022-10-12T17:17:01.795Z,100.00
2022-10-12T17:19:31.941Z,100.00
2022-10-12T17:22:00.942Z,100.00
2022-10-12T17:24:30.992Z,100.00
2022-10-12T17:26:58.570Z,100.00
2022-10-12T17:29:28.192Z,100.00
2022-10-12T17:31:56.891Z,100.00
2022-10-12T17:34:32.149Z,100.00
2022-10-12T17:37:01.647Z,100.00
2022-10-12T17:39:30.989Z,100.00
2022-10-12T17:41:58.372Z,100.00
2022-10-12T17:44:26.278Z,100.00
2022-10-12T17:46:53.277Z,100.00
2022-10-12T17:49:24.792Z,100.00
2022-10-12T17:51:52.421Z,100.00
2022-10-12T17:54:21.835Z,100.00
2022-10-12T17:56:49.115Z,100.00
2022-10-12T17:59:19.047Z,100.00
2022-10-12T18:01:46.034Z,100.00
2022-10-12T18:04:13.280Z,100.00
2022-10-12T18:06:41.972Z,100.00
2022-10-12T18:09:11.004Z,100.00
2022-10-12T18:11:39.781Z,100.00
2022-10-12T18:14:10.015Z,100.00
2022-10-12T18:16:38.985Z,100.00
2022-10-12T18:19:10.438Z,100.00
2022-10-12T18:21:39.298Z,100.00
2022-10-12T18:24:16.754Z,100.00
2022-10-12T18:26:47.327Z,100.00
2022-10-12T18:29:15.375Z,100.00
2022-10-12T18:31:43.537Z,100.00
2022-10-12T18:34:11.343Z,100.00
2022-10-12T18:36:40.227Z,100.00
2022-10-12T18:39:10.886Z,100.00
2022-10-12T18:41:38.708Z,100.00
2022-10-12T18:44:06.496Z,100.00
2022-10-12T18:46:38.041Z,100.00
2022-10-12T18:49:11.368Z,100.00
2022-10-12T18:51:44.265Z,100.00
2022-10-12T18:54:13.885Z,100.00
2022-10-12T18:56:42.360Z,100.00
2022-10-12T18:59:13.465Z,100.00
2022-10-12T19:01:41.309Z,100.00
2022-10-12T19:04:08.671Z,100.00
2022-10-12T19:06:41.841Z,100.00
2022-10-12T19:09:14.511Z,100.00
2022-10-12T19:11:42.481Z,100.00
2022-10-12T19:14:14.423Z,100.00
2022-10-12T19:16:43.332Z,100.00
2022-10-12T19:19:21.385Z,100.00
2022-10-12T19:21:55.274Z,100.00
2022-10-12T19:24:23.248Z,100.00
2022-10-12T19:26:51.227Z,100.00
2022-10-12T19:29:19.057Z,100.00
2022-10-12T19:31:49.777Z,100.00
2022-10-12T19:34:19.789Z,100.00
2022-10-12T19:36:47.033Z,100.00
2022-10-12T19:39:25.523Z,100.00
2022-10-12T19:41:53.895Z,100.00
2022-10-12T19:44:22.739Z,100.00
2022-10-12T19:46:52.597Z,100.00
2022-10-12T19:49:21.576Z,100.00
2022-10-12T19:51:49.578Z,100.00
2022-10-12T19:54:23.039Z,100.00
2022-10-12T19:56:53.485Z,100.00
2022-10-12T19:59:22.821Z,100.00
2022-10-12T20:01:52.572Z,100.00
2022-10-12T20:04:24.670Z,100.00
2022-10-12T20:06:59.069Z,100.00
2022-10-12T20:09:28.907Z,100.00
2022-10-12T20:11:57.494Z,100.00
2022-10-12T20:14:28.320Z,100.00
2022-10-12T20:16:57.371Z,100.00
2022-10-12T20:19:26.287Z,100.00
2022-10-12T20:21:55.830Z,100.00
2022-10-12T20:24:23.826Z,100.00
2022-10-12T20:26:51.928Z,100.00
2022-10-12T20:29:20.473Z,100.00
2022-10-12T20:31:49.463Z,100.00
2022-10-12T20:34:17.787Z,100.00
2022-10-12T20:36:45.865Z,100.00
2022-10-12T20:39:14.386Z,100.00
2022-10-12T20:41:41.739Z,100.00
2022-10-12T20:44:10.057Z,100.00
2022-10-12T20:46:38.107Z,100.00
2022-10-12T20:49:05.206Z,100.00
2022-10-12T20:51:36.025Z,100.00
2022-10-12T20:54:05.742Z,100.00
2022-10-12T20:56:33.796Z,100.00
2022-10-12T20:59:01.194Z,100.00
2022-10-12T21:01:28.562Z,100.00
2022-10-12T21:03:55.947Z,100.00
2022-10-12T21:06:23.765Z,100.00
2022-10-12T21:08:52.555Z,100.00
2022-10-12T21:11:19.634Z,100.00
2022-10-12T21:13:46.866Z,100.00
2022-10-12T21:16:14.667Z,100.00
2022-10-12T21:18:42.419Z,100.00
2022-10-12T21:21:17.698Z,100.00
2022-10-12T21:23:50.915Z,100.00
2022-10-12T21:26:19.976Z,100.00
2022-10-12T21:28:47.363Z,100.00
2022-10-12T21:31:15.294Z,100.00
2022-10-12T21:33:42.311Z,100.00
2022-10-12T21:36:15.264Z,100.00
2022-10-12T21:38:43.425Z,100.00
2022-10-12T21:41:12.297Z,100.00
2022-10-12T21:43:40.275Z,100.00
2022-10-12T21:46:09.858Z,100.00
2022-10-12T21:48:37.218Z,100.00
2022-10-12T21:51:05.066Z,100.00
2022-10-12T21:53:33.453Z,100.00
2022-10-12T21:56:05.696Z,100.00
2022-10-12T21:58:32.394Z,100.00
2022-10-12T22:01:11.048Z,100.00
2022-10-12T22:03:37.824Z,100.00
2022-10-12T22:06:05.028Z,100.00
2022-10-12T22:08:32.084Z,100.00
2022-10-12T22:11:05.995Z,100.00
2022-10-12T22:13:32.876Z,100.00
2022-10-12T22:16:08.335Z,100.00
2022-10-12T22:18:35.463Z,100.00
2022-10-12T22:21:07.821Z,100.00
2022-10-12T22:23:34.843Z,100.00
2022-10-12T22:26:03.619Z,100.00
2022-10-12T22:28:30.954Z,100.00
2022-10-12T22:30:57.701Z,100.00
2022-10-12T22:33:24.965Z,100.00
2022-10-12T22:35:58.042Z,100.00
2022-10-12T22:38:25.303Z,100.00
2022-10-12T22:41:00.443Z,100.00
2022-10-12T22:43:29.133Z,100.00
2022-10-12T22:45:56.746Z,100.00
2022-10-12T22:48:24.715Z,100.00
2022-10-12T22:50:51.968Z,100.00
2022-10-12T22:53:20.654Z,100.00
2022-10-12T22:55:48.445Z,100.00
2022-10-12T22:58:15.754Z,100.00
2022-10-12T23:03:36.558Z,100.00
2022-10-12T23:06:04.268Z,100.00
2022-10-12T23:08:31.594Z,100.00
2022-10-12T23:11:05.527Z,100.00
2022-10-12T23:13:33.257Z,100.00
2022-10-12T23:16:08.971Z,100.00
2022-10-12T23:18:36.614Z,100.00
2022-10-12T23:21:09.216Z,100.00
2022-10-12T23:23:37.144Z,100.00
2022-10-12T23:26:13.056Z,100.00
2022-10-12T23:28:40.255Z,100.00
2022-10-12T23:31:08.729Z,100.00
2022-10-12T23:33:36.061Z,100.00
2022-10-12T23:36:06.239Z,100.00
2022-10-12T23:38:34.763Z,100.00
2022-10-12T23:41:01.637Z,100.00
2022-10-12T23:43:28.394Z,100.00
2022-10-12T23:45:55.676Z,100.00
2022-10-12T23:48:23.418Z,100.00
2022-10-12T23:50:51.965Z,100.00
2022-10-12T23:53:23.961Z,100.00
2022-10-12T23:55:51.907Z,100.00
2022-10-12T23:58:19.457Z,100.00
